Time;durP1;ratioP1;P1;durP2;ratioP2;P2;SDS_P1;SDS_P2;PMS_P1;PMS_P2;Temp;Humidity;BMP_temperature;BMP_pressure;BME280_temperature;BME280_humidity;BME280_pressure;Samples;Min_cycle;Max_cycle;Signal;HPM_P1;HPM_P2
2023/03/19 00:01:57;;;;;;;18.23;5.32;;;5.60;99.90;;;;;;5094010;28;20035;-78
2023/03/19 00:04:24;;;;;;;19.58;3.83;;;5.60;99.90;;;;;;5094037;28;20032;-74
2023/03/19 00:06:51;;;;;;;15.52;4.43;;;5.50;99.90;;;;;;5094085;28;20031;-74
2023/03/19 00:09:18;;;;;;;12.05;4.15;;;5.60;99.90;;;;;;5093510;28;20488;-74
2023/03/19 00:11:44;;;;;;;16.73;3.92;;;5.60;99.90;;;;;;5093761;28;20028;-75
2023/03/19 00:14:10;;;;;;;14.85;4.55;;;5.50;99.90;;;;;;5093229;28;20024;-74
2023/03/19 00:16:36;;;;;;;23.80;5.28;;;5.50;99.90;;;;;;5092329;28;20458;-75
2023/03/19 00:19:02;;;;;;;15.07;5.05;;;5.40;99.90;;;;;;5093121;28;20028;-74
2023/03/19 00:21:29;;;;;;;17.20;5.00;;;5.40;99.90;;;;;;5093826;28;20039;-74
2023/03/19 00:23:59;;;;;;;20.92;5.22;;;5.40;99.90;;;;;;5093786;28;20020;-74
2023/03/19 00:26:29;;;;;;;24.30;4.65;;;5.40;99.90;;;;;;5093463;28;20016;-74
2023/03/19 00:28:56;;;;;;;19.48;4.75;;;5.40;99.90;;;;;;5093022;28;20055;-73
2023/03/19 00:31:22;;;;;;;17.02;4.57;;;5.30;99.90;;;;;;5093259;28;20078;-74
2023/03/19 00:33:48;;;;;;;18.90;5.07;;;5.30;99.90;;;;;;5093222;28;20342;-74
2023/03/19 00:36:17;;;;;;;15.32;4.50;;;5.30;99.90;;;;;;5092967;28;20035;-75
2023/03/19 00:38:45;;;;;;;13.90;4.45;;;5.30;99.90;;;;;;5092805;28;20020;-75
2023/03/19 00:41:11;;;;;;;12.75;4.43;;;5.30;99.90;;;;;;5091972;28;20039;-75
2023/03/19 00:43:37;;;;;;;19.58;5.07;;;5.20;99.90;;;;;;5092917;28;20549;-75
2023/03/19 00:46:04;;;;;;;17.38;4.03;;;5.20;99.90;;;;;;5092469;28;20020;-75
2023/03/19 00:48:29;;;;;;;18.13;4.28;;;5.20;99.90;;;;;;5093208;28;20122;-75
2023/03/19 00:51:00;;;;;;;19.55;4.30;;;5.10;99.90;;;;;;5093203;28;20031;-75
2023/03/19 00:53:26;;;;;;;19.08;4.88;;;5.10;99.90;;;;;;5092795;28;20103;-75
2023/03/19 00:55:51;;;;;;;16.55;4.38;;;5.00;99.90;;;;;;5093268;28;20056;-73
2023/03/19 00:58:17;;;;;;;13.90;3.60;;;5.00;99.90;;;;;;5092139;28;20024;-75
2023/03/19 01:00:44;;;;;;;17.75;4.70;;;4.90;99.90;;;;;;5091104;28;20067;-75
2023/03/19 01:03:09;;;;;;;18.33;4.45;;;4.90;99.90;;;;;;5092984;28;20331;-75
2023/03/19 01:05:35;;;;;;;19.98;4.63;;;4.90;99.90;;;;;;5093534;28;20024;-76
2023/03/19 01:08:01;;;;;;;18.98;4.78;;;4.90;99.90;;;;;;5092766;28;20060;-79
2023/03/19 01:10:27;;;;;;;15.73;4.95;;;4.80;99.90;;;;;;5092595;28;20047;-75
2023/03/19 01:12:53;;;;;;;16.13;3.85;;;4.80;99.90;;;;;;5091175;28;20030;-76
2023/03/19 01:15:19;;;;;;;13.68;4.38;;;4.80;99.90;;;;;;5091802;28;20461;-77
2023/03/19 01:17:44;;;;;;;17.30;4.28;;;4.80;99.90;;;;;;5092253;28;20024;-75
2023/03/19 01:20:17;;;;;;;23.92;5.18;;;4.80;99.90;;;;;;5091979;28;20429;-75
2023/03/19 01:22:44;;;;;;;13.77;4.70;;;4.70;99.90;;;;;;5092868;28;20085;-74
2023/03/19 01:25:12;;;;;;;10.90;3.70;;;4.70;99.90;;;;;;5091981;28;20038;-76
2023/03/19 01:27:38;;;;;;;21.40;4.68;;;4.70;99.90;;;;;;5092340;28;20060;-76
2023/03/19 01:30:06;;;;;;;17.02;4.65;;;4.70;99.90;;;;;;5092192;28;20028;-79
2023/03/19 01:32:32;;;;;;;19.60;4.40;;;4.70;99.90;;;;;;5091313;28;20024;-75
2023/03/19 01:34:58;;;;;;;16.77;4.22;;;4.80;99.90;;;;;;5092112;28;20067;-75
2023/03/19 01:37:24;;;;;;;20.42;4.57;;;4.80;99.90;;;;;;5091558;28;20017;-75
2023/03/19 01:39:49;;;;;;;16.92;4.25;;;4.80;99.90;;;;;;5092097;28;20047;-75
2023/03/19 01:42:15;;;;;;;17.52;4.05;;;4.70;99.90;;;;;;5091500;28;20371;-75
2023/03/19 01:44:43;;;;;;;20.10;4.43;;;4.70;99.90;;;;;;5092456;28;20039;-74
2023/03/19 01:47:23;;;;;;;14.15;4.68;;;4.70;99.90;;;;;;5091082;28;20049;-75
2023/03/19 01:49:53;;;;;;;15.93;4.82;;;4.70;99.90;;;;;;5091868;28;20060;-74
2023/03/19 01:52:19;;;;;;;20.35;4.53;;;4.70;99.90;;;;;;5091324;28;20032;-75
2023/03/19 01:54:46;;;;;;;21.45;3.83;;;4.70;99.90;;;;;;5090820;28;20065;-75
2023/03/19 01:57:14;;;;;;;15.52;3.40;;;4.70;99.90;;;;;;5092040;28;20066;-75
2023/03/19 01:59:52;;;;;;;14.55;4.15;;;4.70;99.90;;;;;;5091918;28;20119;-75
2023/03/19 02:02:32;;;;;;;18.55;4.25;;;4.60;99.90;;;;;;5091606;28;20089;-74
2023/03/19 02:05:08;;;;;;;22.20;4.40;;;4.60;99.90;;;;;;5092286;28;20032;-75
2023/03/19 02:07:35;;;;;;;14.40;3.90;;;4.60;99.90;;;;;;5092638;28;20024;-74
2023/03/19 02:10:06;;;;;;;17.58;3.42;;;4.60;99.90;;;;;;5092081;28;20123;-74
2023/03/19 02:12:32;;;;;;;17.65;3.65;;;4.60;99.90;;;;;;5091792;28;20113;-75
2023/03/19 02:14:58;;;;;;;14.77;3.20;;;4.70;99.90;;;;;;5091532;28;20028;-75
2023/03/19 02:17:24;;;;;;;19.90;4.68;;;4.60;99.90;;;;;;5090748;28;20028;-74
2023/03/19 02:20:18;;;;;;;13.13;3.72;;;4.60;99.90;;;;;;5091318;28;20020;-74
2023/03/19 02:23:26;;;;;;;12.88;3.40;;;4.60;99.90;;;;;;5090473;28;20451;-74
2023/03/19 02:25:57;;;;;;;16.88;3.45;;;4.60;99.90;;;;;;5080812;28;20477;-74
2023/03/19 02:28:23;;;;;;;9.90;3.72;;;4.50;99.90;;;;;;5090942;28;20134;-74
2023/03/19 02:30:49;;;;;;;13.52;3.42;;;4.50;99.90;;;;;;5091429;28;20027;-74
2023/03/19 02:33:17;;;;;;;15.95;3.72;;;4.50;99.90;;;;;;5090774;28;20024;-74
2023/03/19 02:35:46;;;;;;;11.32;3.25;;;4.50;99.90;;;;;;5091662;28;20104;-74
2023/03/19 02:38:13;;;;;;;17.80;3.90;;;4.50;99.90;;;;;;5090744;28;20025;-75
2023/03/19 02:40:46;;;;;;;19.33;3.58;;;4.50;99.90;;;;;;5091443;28;20420;-74
2023/03/19 02:43:12;;;;;;;18.80;3.65;;;4.50;99.90;;;;;;5089682;28;20085;-75
2023/03/19 02:45:38;;;;;;;11.07;3.65;;;4.50;99.90;;;;;;5090124;28;20377;-75
2023/03/19 02:48:04;;;;;;;18.92;3.88;;;4.60;99.90;;;;;;5091386;28;20085;-75
2023/03/19 02:50:30;;;;;;;14.32;4.15;;;4.60;99.90;;;;;;5090206;28;20023;-75
2023/03/19 02:52:55;;;;;;;12.57;3.38;;;4.70;99.90;;;;;;5091088;28;20443;-75
2023/03/19 02:55:21;;;;;;;10.52;3.33;;;4.60;99.90;;;;;;5090138;28;20369;-75
2023/03/19 02:57:47;;;;;;;9.80;3.10;;;4.60;99.90;;;;;;5090866;28;20032;-75
2023/03/19 03:00:15;;;;;;;15.52;3.45;;;4.60;99.90;;;;;;5090414;28;20059;-75
2023/03/19 03:02:41;;;;;;;16.20;3.22;;;4.60;99.90;;;;;;5090187;28;20024;-74
2023/03/19 03:05:08;;;;;;;12.38;3.10;;;4.60;99.90;;;;;;5090734;28;20141;-75
2023/03/19 03:07:35;;;;;;;23.05;4.10;;;4.50;99.90;;;;;;5090084;28;20039;-75
2023/03/19 03:10:01;;;;;;;18.30;3.05;;;4.60;99.90;;;;;;5090532;28;20035;-75
2023/03/19 03:12:26;;;;;;;14.23;3.67;;;4.60;99.90;;;;;;5090071;28;20027;-75
2023/03/19 03:14:52;;;;;;;16.38;3.17;;;4.50;99.90;;;;;;5090399;28;20024;-75
2023/03/19 03:17:18;;;;;;;11.32;3.05;;;4.50;99.90;;;;;;5089872;28;20103;-76
2023/03/19 03:19:43;;;;;;;10.90;3.15;;;4.50;99.90;;;;;;5090507;28;20093;-76
2023/03/19 03:22:09;;;;;;;12.88;2.72;;;4.40;99.90;;;;;;5090469;28;20335;-79
2023/03/19 03:24:35;;;;;;;17.45;3.38;;;4.40;99.90;;;;;;5090270;28;20517;-74
2023/03/19 03:27:01;;;;;;;16.80;3.67;;;4.40;99.90;;;;;;5090318;28;20048;-76
2023/03/19 03:29:27;;;;;;;12.70;3.30;;;4.40;99.90;;;;;;5088596;28;20080;-76
2023/03/19 03:31:52;;;;;;;10.60;3.83;;;4.40;99.90;;;;;;5089975;28;20032;-75
2023/03/19 03:34:18;;;;;;;12.40;3.10;;;4.40;99.90;;;;;;5088505;28;20046;-76
2023/03/19 03:36:45;;;;;;;14.88;3.20;;;4.40;99.90;;;;;;5090086;28;20455;-75
2023/03/19 03:39:12;;;;;;;14.73;3.67;;;4.40;99.90;;;;;;5090069;28;20028;-79
2023/03/19 03:41:38;;;;;;;15.27;2.90;;;4.40;99.90;;;;;;5090149;28;20065;-75
2023/03/19 03:44:04;;;;;;;14.05;3.40;;;4.40;99.90;;;;;;5090415;28;20416;-75
2023/03/19 03:46:30;;;;;;;11.10;3.13;;;4.30;99.90;;;;;;5089738;28;20479;-75
2023/03/19 03:48:56;;;;;;;13.93;2.90;;;4.40;99.90;;;;;;5090071;28;20339;-75
2023/03/19 03:51:22;;;;;;;9.75;3.25;;;4.30;99.90;;;;;;5089586;28;20053;-75
2023/03/19 03:53:47;;;;;;;9.82;3.35;;;4.20;99.90;;;;;;5090208;28;20539;-75
2023/03/19 03:56:13;;;;;;;12.40;3.70;;;4.20;99.90;;;;;;5089675;28;20166;-79
2023/03/19 03:58:39;;;;;;;14.93;3.65;;;4.20;99.90;;;;;;5089763;28;20059;-76
2023/03/19 04:01:06;;;;;;;12.10;3.53;;;4.20;99.90;;;;;;5089974;28;20028;-76
2023/03/19 04:03:32;;;;;;;11.80;3.00;;;4.20;99.90;;;;;;5089636;28;20036;-75
2023/03/19 04:05:58;;;;;;;8.20;2.42;;;4.20;99.90;;;;;;5090094;28;20024;-75
2023/03/19 04:08:24;;;;;;;14.27;2.90;;;4.10;99.90;;;;;;5089335;28;20031;-74
2023/03/19 04:10:49;;;;;;;11.55;3.60;;;4.10;99.90;;;;;;5089842;28;20127;-75
2023/03/19 04:13:15;;;;;;;15.30;2.55;;;4.00;99.90;;;;;;5089577;28;20119;-78
2023/03/19 04:15:42;;;;;;;12.63;3.17;;;4.00;99.90;;;;;;5093741;28;20118;-74
2023/03/19 04:18:08;;;;;;;14.55;3.65;;;4.00;99.90;;;;;;5094036;28;20115;-74
2023/03/19 04:20:34;;;;;;;15.77;3.08;;;3.90;99.90;;;;;;5091843;28;20189;-75
2023/03/19 04:23:00;;;;;;;15.70;3.28;;;3.90;99.90;;;;;;5094019;28;20093;-74
2023/03/19 04:25:26;;;;;;;15.73;3.00;;;3.90;99.90;;;;;;5092986;28;20079;-74
2023/03/19 04:27:52;;;;;;;10.70;2.97;;;3.90;99.90;;;;;;5093643;28;20196;-75
2023/03/19 04:30:18;;;;;;;14.80;3.42;;;4.00;99.90;;;;;;5091435;28;20108;-74
2023/03/19 04:32:45;;;;;;;11.68;2.88;;;3.90;99.90;;;;;;5093481;28;20032;-74
2023/03/19 04:35:11;;;;;;;19.70;3.63;;;3.90;99.90;;;;;;5093395;28;20032;-74
2023/03/19 04:37:37;;;;;;;16.42;2.97;;;3.90;99.90;;;;;;5092635;28;20064;-74
2023/03/19 04:40:03;;;;;;;14.63;3.38;;;3.90;99.90;;;;;;5093397;28;20422;-75
2023/03/19 04:42:29;;;;;;;14.90;4.13;;;3.80;99.90;;;;;;5092585;28;20038;-75
2023/03/19 04:44:54;;;;;;;13.10;3.22;;;3.80;99.90;;;;;;5092894;28;20115;-75
2023/03/19 04:47:20;;;;;;;16.20;3.38;;;3.80;99.90;;;;;;5091215;28;20146;-74
2023/03/19 04:49:46;;;;;;;13.77;3.03;;;3.80;99.90;;;;;;5092706;28;20031;-75
2023/03/19 04:52:12;;;;;;;15.35;3.40;;;3.70;99.90;;;;;;5092692;28;20024;-75
2023/03/19 04:54:38;;;;;;;12.10;2.72;;;3.70;99.90;;;;;;5090710;28;20032;-75
2023/03/19 04:57:04;;;;;;;8.23;3.08;;;3.60;99.90;;;;;;5092988;28;20124;-75
2023/03/19 04:59:30;;;;;;;18.67;3.10;;;3.70;99.90;;;;;;5092298;28;20085;-75
2023/03/19 05:01:55;;;;;;;8.98;2.70;;;3.60;99.90;;;;;;5091487;28;20088;-75
2023/03/19 05:04:22;;;;;;;12.95;3.22;;;3.70;99.90;;;;;;5091978;28;20050;-73
2023/03/19 05:06:49;;;;;;;11.40;3.40;;;3.70;99.90;;;;;;5092880;28;20020;-74
2023/03/19 05:09:15;;;;;;;13.95;3.20;;;3.70;99.90;;;;;;5092604;28;20028;-74
2023/03/19 05:11:40;;;;;;;15.85;3.25;;;3.70;99.90;;;;;;5091990;28;20071;-73
2023/03/19 05:14:07;;;;;;;12.25;2.55;;;3.70;99.90;;;;;;5092206;28;20055;-73
2023/03/19 05:16:34;;;;;;;16.42;3.25;;;3.70;99.90;;;;;;5091801;28;20324;-74
2023/03/19 05:19:00;;;;;;;16.10;3.38;;;3.60;99.90;;;;;;5092457;28;20016;-74
2023/03/19 05:21:26;;;;;;;10.55;3.15;;;3.60;99.90;;;;;;5091770;28;20028;-74
2023/03/19 05:23:53;;;;;;;18.48;3.55;;;3.60;99.90;;;;;;5092274;28;20105;-74
2023/03/19 05:26:20;;;;;;;13.85;3.25;;;3.60;99.90;;;;;;5090157;28;20141;-78
2023/03/19 05:28:46;;;;;;;12.77;3.40;;;3.70;99.90;;;;;;5092766;28;20048;-74
2023/03/19 05:31:11;;;;;;;12.30;3.10;;;3.70;99.90;;;;;;5092480;28;20397;-74
2023/03/19 05:33:37;;;;;;;12.35;3.30;;;3.70;99.90;;;;;;5091735;28;20335;-74
2023/03/19 05:36:03;;;;;;;9.65;3.38;;;3.60;99.90;;;;;;5092195;28;20031;-74
2023/03/19 05:38:29;;;;;;;11.27;2.90;;;3.60;99.90;;;;;;5091680;28;20028;-74
2023/03/19 05:40:54;;;;;;;12.90;2.58;;;3.60;99.90;;;;;;5092077;28;20099;-74
2023/03/19 05:43:21;;;;;;;16.77;3.28;;;3.60;99.90;;;;;;5091789;28;20117;-77
2023/03/19 05:45:53;;;;;;;11.73;2.78;;;3.70;99.90;;;;;;5092217;28;20070;-73
2023/03/19 05:48:20;;;;;;;;;;;3.70;99.90;;;;;;5092535;28;20031;-74
2023/03/19 05:50:46;;;;;;;13.10;3.00;;;3.60;99.90;;;;;;5091863;28;19999;-74
2023/03/19 05:53:11;;;;;;;13.18;2.88;;;3.60;99.90;;;;;;5092008;28;20080;-75
2023/03/19 05:55:37;;;;;;;12.68;2.78;;;3.60;99.90;;;;;;5091316;28;20048;-75
2023/03/19 05:58:03;;;;;;;12.90;3.08;;;3.60;99.90;;;;;;5092172;28;20210;-75
2023/03/19 06:00:29;;;;;;;13.90;3.00;;;3.60;99.90;;;;;;5090161;28;20039;-75
2023/03/19 06:02:55;;;;;;;12.20;2.92;;;3.50;99.90;;;;;;5091817;28;20052;-74
2023/03/19 06:05:20;;;;;;;15.35;3.53;;;3.50;99.90;;;;;;5090409;28;20123;-74
2023/03/19 06:07:46;;;;;;;11.43;3.63;;;3.50;99.90;;;;;;5091163;28;20020;-75
2023/03/19 06:10:12;;;;;;;14.95;2.80;;;3.60;99.90;;;;;;5090472;28;20083;-74
2023/03/19 06:12:38;;;;;;;13.88;2.95;;;3.50;99.90;;;;;;5091188;28;20024;-74
2023/03/19 06:15:04;;;;;;;9.65;2.95;;;3.50;99.90;;;;;;5091957;28;20020;-74
2023/03/19 06:17:30;;;;;;;12.10;3.05;;;3.50;99.90;;;;;;5091317;28;20036;-75
2023/03/19 06:19:55;;;;;;;12.07;2.75;;;3.40;99.90;;;;;;5091484;28;20119;-74
2023/03/19 06:22:21;;;;;;;12.43;3.05;;;3.40;99.90;;;;;;5089615;28;20070;-74
2023/03/19 06:24:47;;;;;;;14.63;3.92;;;3.40;99.90;;;;;;5089347;28;20040;-75
2023/03/19 06:27:13;;;;;;;15.18;3.25;;;3.30;99.90;;;;;;5091029;28;20044;-75
2023/03/19 06:29:38;;;;;;;12.65;3.00;;;3.40;99.90;;;;;;5090774;28;20064;-75
2023/03/19 06:32:04;;;;;;;13.40;3.33;;;3.40;99.90;;;;;;5090852;28;20161;-74
2023/03/19 06:34:30;;;;;;;12.10;2.80;;;3.40;99.90;;;;;;5090511;28;20043;-75
2023/03/19 06:36:56;;;;;;;13.50;3.08;;;3.40;99.90;;;;;;5089207;28;20368;-74
2023/03/19 06:39:21;;;;;;;11.30;3.28;;;3.40;99.90;;;;;;5090332;28;20417;-74
2023/03/19 06:41:47;;;;;;;10.90;3.03;;;3.40;99.90;;;;;;5089920;28;20206;-74
2023/03/19 06:44:13;;;;;;;12.20;2.63;;;3.50;99.90;;;;;;5090837;28;20032;-74
2023/03/19 06:46:39;;;;;;;14.02;3.08;;;3.50;99.90;;;;;;5090160;28;20412;-73
2023/03/19 06:49:05;;;;;;;16.58;3.55;;;3.50;99.90;;;;;;5090398;28;20035;-73
2023/03/19 06:51:31;;;;;;;13.32;2.60;;;3.50;99.90;;;;;;5089551;28;20063;-74
2023/03/19 06:53:57;;;;;;;13.30;2.58;;;3.60;99.90;;;;;;5090213;28;20071;-74
2023/03/19 06:56:22;;;;;;;15.75;2.85;;;3.70;99.90;;;;;;5091406;28;20026;-74
2023/03/19 06:58:48;;;;;;;10.55;2.78;;;3.80;99.90;;;;;;5090569;28;20032;-74
2023/03/19 07:01:15;;;;;;;10.98;2.90;;;3.90;99.90;;;;;;5091640;28;20036;-74
2023/03/19 07:03:40;;;;;;;13.35;2.28;;;4.00;99.90;;;;;;5091145;28;20058;-74
2023/03/19 07:06:06;;;;;;;7.38;2.60;;;4.20;99.90;;;;;;5090752;28;20028;-73
2023/03/19 07:08:32;;;;;;;10.40;2.42;;;4.30;99.90;;;;;;5089871;28;20394;-73
2023/03/19 07:11:05;;;;;;;10.00;1.95;;;4.50;99.90;;;;;;5090597;28;20439;-74
2023/03/19 07:13:32;;;;;;;8.70;2.50;;;4.60;99.90;;;;;;5089763;28;20016;-74
2023/03/19 07:15:59;;;;;;;11.02;2.63;;;4.70;99.90;;;;;;5090382;28;20020;-75
2023/03/19 07:18:25;;;;;;;12.93;2.42;;;4.80;99.90;;;;;;5090749;28;20373;-75
2023/03/19 07:20:52;;;;;;;12.57;3.08;;;4.90;99.90;;;;;;5089475;28;20020;-74
2023/03/19 07:23:18;;;;;;;14.30;2.78;;;5.00;99.90;;;;;;5090304;28;20032;-75
2023/03/19 07:25:44;;;;;;;9.82;2.08;;;5.10;99.90;;;;;;5089558;28;20028;-75
2023/03/19 07:28:10;;;;;;;9.27;2.30;;;5.30;99.90;;;;;;5089552;28;20059;-75
2023/03/19 07:30:37;;;;;;;6.07;1.85;;;5.40;99.90;;;;;;5089424;28;20036;-75
2023/03/19 07:33:03;;;;;;;13.45;2.92;;;5.40;99.90;;;;;;5090008;28;20101;-76
2023/03/19 07:35:29;;;;;;;13.27;3.50;;;5.50;99.90;;;;;;5088747;28;20031;-78
2023/03/19 07:37:55;;;;;;;13.40;2.72;;;5.60;99.90;;;;;;5089887;28;20028;-75
2023/03/19 07:40:20;;;;;;;14.50;2.55;;;5.60;99.90;;;;;;5089789;28;20381;-75
2023/03/19 07:42:46;;;;;;;9.93;3.22;;;5.70;99.90;;;;;;5089674;28;20024;-75
2023/03/19 07:45:12;;;;;;;14.27;2.33;;;5.80;99.90;;;;;;5090008;28;20028;-75
2023/03/19 07:47:38;;;;;;;11.90;2.97;;;5.80;99.90;;;;;;5089612;28;20059;-75
2023/03/19 07:50:05;;;;;;;8.20;2.58;;;5.80;99.90;;;;;;5093401;28;20031;-75
2023/03/19 07:52:31;;;;;;;10.18;2.58;;;5.90;99.90;;;;;;5093457;28;20036;-79
2023/03/19 07:54:56;;;;;;;12.85;2.47;;;6.00;99.90;;;;;;5094079;28;20096;-75
2023/03/19 07:57:24;;;;;;;17.40;2.83;;;6.00;99.90;;;;;;5093914;28;20051;-75
2023/03/19 07:59:50;;;;;;;8.45;2.13;;;6.10;99.90;;;;;;5093140;28;20112;-75
2023/03/19 08:02:16;;;;;;;12.60;2.75;;;6.20;99.90;;;;;;5094187;28;20073;-75
2023/03/19 08:04:42;;;;;;;10.32;3.17;;;6.20;99.90;;;;;;5093492;28;20115;-75
2023/03/19 08:07:11;;;;;;;16.13;2.50;;;6.30;99.90;;;;;;5093956;28;20430;-75
2023/03/19 08:09:38;;;;;;;10.98;2.47;;;6.40;99.90;;;;;;5092547;28;20036;-76
2023/03/19 08:12:05;;;;;;;10.32;2.45;;;6.40;99.90;;;;;;5093694;28;20024;-75
2023/03/19 08:14:32;;;;;;;15.43;2.63;;;6.40;99.90;;;;;;5093304;28;20335;-79
2023/03/19 08:16:58;;;;;;;12.75;3.25;;;6.60;99.90;;;;;;5093804;28;20028;-75
2023/03/19 08:19:24;;;;;;;10.80;2.53;;;6.70;99.90;;;;;;5093675;28;20020;-75
2023/03/19 08:21:50;;;;;;;6.97;2.05;;;6.80;99.90;;;;;;5092681;28;20107;-75
2023/03/19 08:24:16;;;;;;;11.55;2.47;;;6.80;99.90;;;;;;5093455;28;20024;-75
2023/03/19 08:26:42;;;;;;;7.15;2.22;;;6.80;99.90;;;;;;5092643;28;20352;-75
2023/03/19 08:29:08;;;;;;;8.07;2.60;;;6.90;99.90;;;;;;5093076;28;20078;-75
2023/03/19 08:31:35;;;;;;;10.18;2.10;;;7.00;99.90;;;;;;5092530;28;20107;-78
2023/03/19 08:34:02;;;;;;;12.90;2.13;;;7.10;99.90;;;;;;5091920;28;20052;-75
2023/03/19 08:36:28;;;;;;;7.43;2.85;;;7.10;99.90;;;;;;5093350;28;20035;-74
2023/03/19 08:38:54;;;;;;;16.98;2.38;;;7.20;99.90;;;;;;5092351;28;20398;-75
2023/03/19 08:41:21;;;;;;;11.40;2.65;;;7.30;99.90;;;;;;5093031;28;20548;-75
2023/03/19 08:43:47;;;;;;;13.68;2.33;;;7.40;99.90;;;;;;5092560;28;20129;-75
2023/03/19 08:46:12;;;;;;;9.73;1.85;;;7.40;99.90;;;;;;5092975;28;20024;-75
2023/03/19 08:48:38;;;;;;;10.30;2.30;;;7.40;99.90;;;;;;5092387;28;20067;-76
2023/03/19 08:51:04;;;;;;;10.40;2.08;;;7.50;99.90;;;;;;5092660;28;20420;-75
2023/03/19 08:53:31;;;;;;;10.52;2.88;;;7.50;99.90;;;;;;5091447;28;20444;-76
2023/03/19 08:56:00;;;;;;;10.90;2.53;;;7.50;99.90;;;;;;5092555;28;20498;-76
2023/03/19 08:58:27;;;;;;;12.05;2.63;;;7.60;99.90;;;;;;5092841;28;20305;-75
2023/03/19 09:01:00;;;;;;;11.20;2.30;;;7.70;99.90;;;;;;5091073;28;20024;-75
2023/03/19 09:03:26;;;;;;;11.05;2.22;;;7.80;99.90;;;;;;5091418;28;20378;-74
2023/03/19 09:05:52;;;;;;;11.38;2.42;;;7.90;99.90;;;;;;5092659;28;20032;-76
2023/03/19 09:08:17;;;;;;;14.85;2.67;;;8.00;99.90;;;;;;5092581;28;20102;-76
2023/03/19 09:10:43;;;;;;;9.38;1.73;;;8.00;99.90;;;;;;5091906;28;20038;-76
2023/03/19 09:13:09;;;;;;;11.48;2.08;;;8.00;99.90;;;;;;5092844;28;20024;-76
2023/03/19 09:15:34;;;;;;;10.20;1.55;;;8.10;99.90;;;;;;5092279;28;20078;-80
2023/03/19 09:18:00;;;;;;;12.20;2.00;;;8.20;99.90;;;;;;5092263;28;20020;-75
2023/03/19 09:20:26;;;;;;;10.13;2.22;;;8.40;99.90;;;;;;5092357;28;20024;-75
2023/03/19 09:22:52;;;;;;;10.32;2.17;;;8.60;99.90;;;;;;5092201;28;20115;-75
2023/03/19 09:25:17;;;;;;;7.85;1.63;;;8.60;99.90;;;;;;5093085;28;20106;-75
2023/03/19 09:27:43;;;;;;;10.38;2.25;;;8.60;99.90;;;;;;5091027;28;20105;-76
2023/03/19 09:30:10;;;;;;;10.10;1.80;;;8.70;99.90;;;;;;5092509;28;20024;-76
2023/03/19 09:32:36;;;;;;;13.88;2.13;;;8.70;99.90;;;;;;5091958;28;20543;-79
2023/03/19 09:35:02;;;;;;;10.32;1.77;;;8.80;99.90;;;;;;5091520;28;20028;-76
2023/03/19 09:37:27;;;;;;;9.70;2.08;;;8.90;99.90;;;;;;5092139;28;20078;-76
2023/03/19 09:39:53;;;;;;;6.00;2.55;;;9.00;99.90;;;;;;5091264;28;20107;-76
2023/03/19 09:42:29;;;;;;;8.55;2.15;;;9.00;99.90;;;;;;5091257;28;20120;-76
2023/03/19 09:44:55;;;;;;;12.30;2.22;;;9.10;99.90;;;;;;5091603;28;20028;-75
2023/03/19 09:47:30;;;;;;;7.82;1.92;;;9.00;99.90;;;;;;5091869;28;20055;-75
2023/03/19 09:50:00;;;;;;;12.57;1.98;;;9.00;99.90;;;;;;5092347;28;20036;-76
2023/03/19 09:52:25;;;;;;;5.72;1.73;;;9.00;99.90;;;;;;5091472;28;20040;-75
2023/03/19 09:54:55;;;;;;;10.13;2.30;;;9.00;99.90;;;;;;5090904;28;20070;-75
2023/03/19 09:57:21;;;;;;;7.72;2.20;;;9.00;99.90;;;;;;5091193;28;20178;-76
2023/03/19 09:59:48;;;;;;;8.82;1.85;;;9.10;99.90;;;;;;5090759;28;20127;-75
2023/03/19 10:02:42;;;;;;;5.82;1.65;;;9.10;99.90;;;;;;5091349;28;20043;-75
2023/03/19 10:05:30;;;;;;;7.57;1.73;;;9.20;99.90;;;;;;5087827;28;20044;-75
2023/03/19 10:08:11;;;;;;;6.22;1.73;;;9.30;99.90;;;;;;5090600;28;20028;-76
2023/03/19 10:11:07;;;;;;;11.52;2.05;;;9.30;99.90;;;;;;5089533;28;20062;-75
2023/03/19 10:13:38;;;;;;;9.38;2.10;;;9.30;99.90;;;;;;5090698;28;20026;-75
2023/03/19 10:16:11;;;;;;;10.48;2.03;;;9.20;99.90;;;;;;5090858;28;20024;-76
2023/03/19 10:18:38;;;;;;;;;;;9.30;99.90;;;;;;5091412;28;20129;-74
2023/03/19 10:21:31;;;;;;;3.67;1.40;;;9.30;99.90;;;;;;5089561;28;19915;-74
2023/03/19 10:24:30;;;;;;;8.32;1.98;;;9.30;99.90;;;;;;5086234;28;20139;-74
2023/03/19 10:27:04;;;;;;;7.22;2.30;;;9.40;99.90;;;;;;5090210;28;20051;-75
2023/03/19 10:29:30;;;;;;;7.78;1.83;;;9.40;99.90;;;;;;5091551;28;20431;-75
2023/03/19 10:32:09;;;;;;;12.65;2.30;;;9.50;99.90;;;;;;5091252;28;20093;-75
2023/03/19 10:34:47;;;;;;;9.70;1.70;;;9.60;99.90;;;;;;5090166;28;20111;-74
2023/03/19 10:37:20;;;;;;;10.95;2.40;;;9.50;99.90;;;;;;5091388;28;20048;-75
2023/03/19 10:39:48;;;;;;;7.45;2.50;;;9.50;99.90;;;;;;5090720;28;20020;-75
2023/03/19 10:42:51;;;;;;;9.93;2.85;;;9.50;99.90;;;;;;5091412;28;20031;-74
2023/03/19 10:45:27;;;;;;;9.05;2.55;;;9.50;99.90;;;;;;5092046;28;20028;-74
2023/03/19 10:47:55;;;;;;;8.02;2.30;;;9.70;99.90;;;;;;5091262;28;20020;-75
2023/03/19 10:50:56;;;;;;;9.38;2.00;;;9.50;99.90;;;;;;5091958;28;20042;-74
2023/03/19 10:53:24;;;;;;;9.48;2.05;;;9.60;99.90;;;;;;5091800;28;20056;-73
2023/03/19 10:55:54;;;;;;;7.90;1.83;;;9.60;99.90;;;;;;5091011;28;20031;-74
2023/03/19 10:58:24;;;;;;;9.77;2.05;;;9.70;99.90;;;;;;5091599;28;20028;-74
2023/03/19 11:00:57;;;;;;;7.75;2.03;;;9.70;99.90;;;;;;5091089;28;20032;-74
2023/03/19 11:03:32;;;;;;;7.60;1.90;;;9.70;99.90;;;;;;5091671;28;20044;-74
2023/03/19 11:06:22;;;;;;;7.55;1.85;;;9.70;99.90;;;;;;5090982;28;20116;-74
2023/03/19 11:09:07;;;;;;;9.10;1.88;;;9.70;99.90;;;;;;5091242;28;20028;-75
2023/03/19 11:11:43;;;;;;;11.27;2.08;;;9.60;99.90;;;;;;5091054;28;20335;-74
2023/03/19 11:14:37;;;;;;;8.35;1.70;;;9.70;99.90;;;;;;5091052;28;20024;-75
2023/03/19 11:17:03;;;;;;;11.30;2.03;;;9.60;99.90;;;;;;5090176;28;20020;-73
2023/03/19 11:19:39;;;;;;;11.18;2.00;;;9.70;99.90;;;;;;5089938;28;20359;-74
2023/03/19 11:22:11;;;;;;;11.52;2.20;;;9.70;99.90;;;;;;5089904;28;20106;-75
2023/03/19 11:24:41;;;;;;;7.93;2.25;;;9.70;99.90;;;;;;5089974;28;20036;-75
2023/03/19 11:27:10;;;;;;;7.60;2.20;;;9.70;99.90;;;;;;5090038;28;20055;-75
2023/03/19 11:29:40;;;;;;;8.95;1.58;;;9.80;99.90;;;;;;5090451;28;20327;-75
2023/03/19 11:32:36;;;;;;;5.47;1.50;;;9.90;99.90;;;;;;5089923;28;20529;-74
2023/03/19 11:35:35;;;;;;;7.78;1.38;;;10.00;99.90;;;;;;5089505;28;20492;-75
2023/03/19 11:38:02;;;;;;;8.13;1.60;;;10.00;99.90;;;;;;5085233;28;20063;-75
2023/03/19 11:40:41;;;;;;;9.95;1.73;;;10.10;99.90;;;;;;5090401;28;20085;-74
2023/03/19 11:43:27;;;;;;;5.53;1.52;;;10.10;99.90;;;;;;5089563;28;20119;-74
2023/03/19 11:46:18;;;;;;;8.90;1.88;;;10.10;99.90;;;;;;5090100;28;20028;-75
2023/03/19 11:48:52;;;;;;;8.20;1.95;;;10.10;99.90;;;;;;5090030;28;20058;-78
2023/03/19 11:51:35;;;;;;;7.10;1.98;;;10.10;99.90;;;;;;5090162;28;20032;-74
2023/03/19 11:54:20;;;;;;;9.93;2.10;;;10.10;99.90;;;;;;5089342;28;20054;-74
2023/03/19 11:56:58;;;;;;;8.00;1.70;;;10.20;99.90;;;;;;5101753;28;20042;-79
2023/03/19 11:59:27;;;;;;;7.53;2.47;;;10.20;99.90;;;;;;5110335;28;20035;-75
2023/03/19 12:02:23;;;;;;;9.43;1.70;;;10.40;99.90;;;;;;5109580;28;20057;-75
2023/03/19 12:04:57;;;;;;;6.90;1.75;;;10.40;99.90;;;;;;5109827;28;20149;-76
2023/03/19 12:07:51;;;;;;;44.10;7.85;;;10.40;99.90;;;;;;5110284;28;20027;-74
2023/03/19 12:10:38;;;;;;;13.63;3.42;;;10.50;99.90;;;;;;5110131;28;20028;-74
2023/03/19 12:13:42;;;;;;;6.85;1.90;;;10.50;99.90;;;;;;5109504;28;20066;-74
2023/03/19 12:16:23;;;;;;;5.18;1.90;;;10.50;99.90;;;;;;5109458;28;20747;-75
2023/03/19 12:19:12;;;;;;;12.70;3.40;;;10.60;99.90;;;;;;5109780;28;20024;-79
2023/03/19 12:22:00;;;;;;;8.90;2.55;;;10.80;99.90;;;;;;5110145;28;20207;-74
2023/03/19 12:24:38;;;;;;;10.00;1.70;;;10.90;99.90;;;;;;5110176;28;20035;-76
2023/03/19 12:27:15;;;;;;;10.20;2.22;;;10.90;99.90;;;;;;5109092;28;20172;-75
2023/03/19 12:29:46;;;;;;;11.05;2.05;;;10.90;99.90;;;;;;5109855;28;20106;-75
2023/03/19 12:32:59;;;;;;;8.00;2.00;;;10.90;99.90;;;;;;5108288;28;20346;-75
2023/03/19 12:35:34;;;;;;;7.30;2.00;;;10.80;99.90;;;;;;5110428;28;20043;-75
2023/03/19 12:38:03;;;;;;;10.82;2.42;;;10.70;99.90;;;;;;5113440;28;20110;-75
2023/03/19 12:40:35;;;;;;;7.82;1.63;;;10.70;99.90;;;;;;5113991;28;20035;-75
2023/03/19 12:43:06;;;;;;;5.63;1.80;;;10.60;99.90;;;;;;5113411;27;20024;-75
2023/03/19 12:45:43;;;;;;;8.00;1.65;;;10.50;99.90;;;;;;5113921;28;20036;-74
2023/03/19 12:48:24;;;;;;;5.97;1.98;;;10.30;99.90;;;;;;5113680;28;20031;-74
2023/03/19 12:50:55;;;;;;;6.32;1.60;;;10.30;99.90;;;;;;5113146;27;20089;-78
2023/03/19 12:53:34;;;;;;;12.20;2.20;;;10.20;99.90;;;;;;5113831;28;20031;-75
2023/03/19 12:56:12;;;;;;;6.03;1.60;;;10.10;99.90;;;;;;5113349;28;20031;-74
2023/03/19 12:59:00;;;;;;;7.07;1.55;;;10.20;99.90;;;;;;5114034;28;20084;-74
2023/03/19 13:01:48;;;;;;;9.32;2.42;;;10.20;99.90;;;;;;5114007;28;20024;-74